Time;durP1;ratioP1;P1;durP2;ratioP2;P2;SDS_P1;SDS_P2;PMS_P1;PMS_P2;Temp;Humidity;BMP_temperature;BMP_pressure;BME280_temperature;BME280_humidity;BME280_pressure;Samples;Min_cycle;Max_cycle;Signal;HPM_P1;HPM_P2
2023/04/09 00:03:20;;;;;;;13.40;12.30;;;9.80;98.30;;;;;;10492181;28;20568;-82
2023/04/09 00:08:23;;;;;;;13.40;12.30;;;9.80;98.30;;;;;;10459483;28;20235;-82
2023/04/09 00:13:26;;;;;;;12.80;11.80;;;9.80;98.50;;;;;;10474750;28;20202;-83
2023/04/09 00:18:28;;;;;;;13.77;12.37;;;9.80;98.70;;;;;;10482942;28;20307;-82
2023/04/09 00:23:30;;;;;;;14.63;13.50;;;9.80;98.60;;;;;;10474907;28;20244;-81
2023/04/09 00:28:34;;;;;;;13.43;12.33;;;9.90;98.50;;;;;;10470543;28;20246;-82
2023/04/09 00:33:37;;;;;;;14.17;12.87;;;9.90;98.90;;;;;;10504087;28;20205;-81
2023/04/09 00:38:38;;;;;;;14.10;12.90;;;9.90;98.90;;;;;;10470915;28;20214;-81
2023/04/09 00:43:42;;;;;;;13.80;12.60;;;9.90;98.70;;;;;;10473754;28;20207;-82
2023/04/09 00:48:44;;;;;;;14.10;13.00;;;9.90;98.90;;;;;;10446723;28;20255;-81
2023/04/09 00:53:47;;;;;;;14.30;13.10;;;9.90;98.90;;;;;;10475115;28;20292;-83
2023/04/09 00:58:53;;;;;;;14.37;13.27;;;9.90;98.70;;;;;;10462349;28;20208;-82
2023/04/09 01:03:55;;;;;;;14.50;13.30;;;9.90;98.50;;;;;;10471023;28;20200;-82
2023/04/09 01:09:03;;;;;;;13.83;12.73;;;9.90;98.60;;;;;;10465480;28;20620;-81
2023/04/09 01:14:13;;;;;;;18.73;17.20;;;9.90;98.90;;;;;;10494336;28;20246;-81
2023/04/09 01:19:30;;;;;;;15.10;13.80;;;9.80;98.80;;;;;;10461546;28;20205;-82
2023/04/09 01:24:51;;;;;;;24.27;20.37;;;9.80;98.40;;;;;;10496496;28;20719;-82
2023/04/09 01:30:08;;;;;;;14.90;13.70;;;9.80;98.70;;;;;;10473020;28;20199;-83
2023/04/09 01:35:11;;;;;;;14.60;13.20;;;9.70;98.60;;;;;;10493559;28;20263;-83
2023/04/09 01:40:13;;;;;;;14.93;13.53;;;9.70;98.70;;;;;;10453264;28;20194;-81
2023/04/09 01:45:18;;;;;;;15.10;13.90;;;9.70;99.10;;;;;;10475837;28;20244;-81
2023/04/09 01:50:20;;;;;;;13.30;12.20;;;9.70;98.90;;;;;;10494754;28;20708;-81
2023/04/09 01:55:22;;;;;;;14.10;13.00;;;9.70;98.50;;;;;;10475643;28;20310;-82
2023/04/09 02:00:31;;;;;;;14.37;13.13;;;9.70;98.80;;;;;;10498753;28;20272;-81
2023/04/09 02:05:37;;;;;;;13.50;12.40;;;9.70;98.50;;;;;;10492019;28;20224;-81
2023/04/09 02:10:41;;;;;;;15.50;14.17;;;9.70;98.80;;;;;;10459558;28;20197;-81
2023/04/09 02:15:46;;;;;;;13.43;12.30;;;9.60;98.80;;;;;;10476133;28;20754;-80
2023/04/09 02:20:48;;;;;;;15.77;14.57;;;9.60;99.20;;;;;;10497344;28;20219;-81
2023/04/09 02:25:52;;;;;;;14.93;13.73;;;9.50;99.10;;;;;;10464885;28;20228;-80
2023/04/09 02:30:55;;;;;;;14.37;13.07;;;9.50;99.10;;;;;;10462892;28;20233;-82
2023/04/09 02:35:57;;;;;;;15.53;14.23;;;9.50;99.10;;;;;;10482808;28;20239;-80
2023/04/09 02:41:00;;;;;;;15.60;14.30;;;9.50;99.00;;;;;;10503365;28;20277;-82
2023/04/09 02:46:03;;;;;;;15.37;14.10;;;9.50;99.10;;;;;;10485999;28;20255;-81
2023/04/09 02:51:07;;;;;;;15.53;14.23;;;9.40;99.10;;;;;;10499598;28;20286;-82
2023/04/09 02:56:09;;;;;;;16.00;14.57;;;9.40;99.40;;;;;;10481993;28;20209;-81
2023/04/09 03:01:12;;;;;;;14.97;13.77;;;9.40;99.20;;;;;;10490566;28;20205;-80
2023/04/09 03:06:15;;;;;;;14.90;13.50;;;9.30;99.40;;;;;;10505425;22;20229;-81
2023/04/09 03:11:17;;;;;;;15.63;14.30;;;9.30;99.30;;;;;;10375309;28;20216;-80
2023/04/09 03:16:20;;;;;;;14.40;13.17;;;9.30;99.50;;;;;;10349958;28;20316;-79
2023/04/09 03:21:22;;;;;;;16.60;15.23;;;9.30;99.10;;;;;;10379186;28;20199;-79
2023/04/09 03:26:26;;;;;;;15.00;13.80;;;9.30;99.40;;;;;;10377759;28;20229;-79
2023/04/09 03:31:30;;;;;;;20.30;18.37;;;9.30;99.20;;;;;;10370195;28;20665;-79
2023/04/09 03:36:33;;;;;;;18.07;16.37;;;9.20;99.50;;;;;;10329824;28;20216;-79
2023/04/09 03:41:39;;;;;;;15.03;13.77;;;9.20;99.50;;;;;;10346540;28;20622;-79
2023/04/09 03:46:47;;;;;;;15.23;14.03;;;9.20;99.30;;;;;;10369638;28;20232;-79
2023/04/09 03:51:54;;;;;;;16.90;15.30;;;9.30;99.40;;;;;;10329350;28;20252;-79
2023/04/09 03:56:58;;;;;;;15.20;13.90;;;9.20;99.60;;;;;;10377121;28;20245;-79
2023/04/09 04:02:02;;;;;;;16.03;14.70;;;9.20;99.50;;;;;;10354497;28;20325;-79
2023/04/09 04:07:07;;;;;;;16.07;14.57;;;9.20;99.70;;;;;;10346446;28;20217;-80
2023/04/09 04:12:14;;;;;;;14.37;13.17;;;9.20;99.60;;;;;;10370744;28;20198;-79
2023/04/09 04:17:50;;;;;;;14.90;13.70;;;9.20;99.80;;;;;;10351601;28;20724;-79
2023/04/09 04:23:14;;;;;;;16.43;15.00;;;9.20;99.70;;;;;;10347817;28;20223;-79
2023/04/09 04:28:32;;;;;;;15.50;14.20;;;9.10;99.90;;;;;;10339304;28;20222;-79
2023/04/09 04:33:37;;;;;;;16.50;14.90;;;9.10;99.90;;;;;;10353164;28;20204;-79
2023/04/09 04:38:44;;;;;;;15.57;14.27;;;9.10;99.80;;;;;;10356023;28;20218;-79
2023/04/09 04:43:56;;;;;;;16.57;15.17;;;9.10;99.70;;;;;;10345255;28;20453;-78
2023/04/09 04:49:01;;;;;;;15.70;14.40;;;9.10;99.90;;;;;;10340621;28;20226;-79
2023/04/09 04:54:05;;;;;;;16.13;14.70;;;9.10;99.90;;;;;;10343893;28;20199;-81
2023/04/09 04:59:08;;;;;;;15.90;14.50;;;9.10;99.70;;;;;;10341810;28;20221;-79
2023/04/09 05:04:24;;;;;;;16.27;14.87;;;9.10;99.90;;;;;;10344224;28;20197;-80
2023/04/09 05:09:27;;;;;;;16.00;14.53;;;9.10;99.90;;;;;;10341414;28;20225;-80
2023/04/09 05:14:36;;;;;;;17.10;15.70;;;9.10;99.90;;;;;;10341854;28;20199;-79
2023/04/09 05:19:39;;;;;;;18.60;17.00;;;9.10;99.90;;;;;;10356209;28;20211;-80
2023/04/09 05:24:42;;;;;;;17.70;16.10;;;9.20;99.90;;;;;;10361555;28;20213;-79
2023/04/09 05:29:46;;;;;;;26.33;21.00;;;9.20;99.90;;;;;;10351204;28;20257;-80
2023/04/09 05:34:49;;;;;;;20.53;18.70;;;9.20;99.90;;;;;;10358117;28;20284;-80
2023/04/09 05:39:52;;;;;;;18.70;17.03;;;9.30;99.90;;;;;;10362948;28;20735;-79
2023/04/09 05:44:54;;;;;;;19.97;18.27;;;9.30;99.90;;;;;;10358106;28;20196;-80
2023/04/09 05:49:58;;;;;;;18.93;17.23;;;9.40;99.90;;;;;;10369905;28;20216;-79
2023/04/09 05:55:00;;;;;;;18.60;17.00;;;9.50;99.90;;;;;;10358035;28;20226;-79
2023/04/09 06:00:17;;;;;;;20.23;18.40;;;9.60;99.90;;;;;;10351814;28;20199;-79
2023/04/09 06:05:20;;;;;;;20.73;18.83;;;9.70;99.90;;;;;;10355684;28;20221;-79
2023/04/09 06:10:24;;;;;;;18.93;17.33;;;9.80;99.90;;;;;;10339561;28;20194;-80
2023/04/09 06:15:27;;;;;;;17.93;16.33;;;10.00;99.60;;;;;;10363152;28;20302;-80
2023/04/09 06:20:31;;;;;;;19.57;17.87;;;10.10;99.90;;;;;;10354360;28;20205;-79
2023/04/09 06:25:33;;;;;;;19.30;17.73;;;10.10;99.40;;;;;;10364748;28;20716;-79
2023/04/09 06:30:36;;;;;;;18.67;17.07;;;10.00;99.90;;;;;;10342637;28;20234;-80
2023/04/09 06:35:39;;;;;;;20.03;18.43;;;10.00;99.90;;;;;;10359339;28;20681;-78
2023/04/09 06:40:42;;;;;;;19.73;18.13;;;10.00;99.90;;;;;;10364796;28;20219;-80
2023/04/09 06:45:44;;;;;;;18.97;17.27;;;10.00;99.90;;;;;;10356807;28;20224;-78
2023/04/09 06:50:47;;;;;;;18.07;16.57;;;10.00;99.90;;;;;;10369909;28;20290;-79
2023/04/09 06:55:50;;;;;;;18.50;16.87;;;10.00;99.90;;;;;;10346928;28;20302;-79
2023/04/09 07:00:52;;;;;;;17.33;15.93;;;10.00;99.30;;;;;;10338730;28;20260;-79
2023/04/09 07:05:56;;;;;;;16.10;14.70;;;10.00;98.40;;;;;;10365142;28;20227;-79
2023/04/09 07:10:58;;;;;;;16.20;14.80;;;10.10;97.70;;;;;;10375455;28;20207;-79
2023/04/09 07:16:00;;;;;;;16.33;14.83;;;10.10;97.90;;;;;;10366519;28;20299;-79
2023/04/09 07:21:04;;;;;;;16.80;15.37;;;10.10;98.80;;;;;;10358310;28;20203;-80
2023/04/09 07:26:06;;;;;;;15.70;14.30;;;10.20;99.10;;;;;;10340901;28;20219;-79
2023/04/09 07:31:08;;;;;;;15.00;13.70;;;10.20;98.50;;;;;;10344439;28;20688;-80
2023/04/09 07:36:11;;;;;;;14.13;12.87;;;10.30;98.20;;;;;;10351396;28;20215;-77
2023/04/09 07:41:14;;;;;;;16.47;14.57;;;10.40;97.90;;;;;;10366642;28;20238;-79
2023/04/09 07:46:20;;;;;;;11.83;10.87;;;10.50;95.00;;;;;;10366921;28;20294;-78
2023/04/09 07:51:24;;;;;;;13.10;11.90;;;10.50;95.40;;;;;;10334503;28;20199;-78
2023/04/09 07:56:26;;;;;;;11.73;10.80;;;10.70;92.60;;;;;;10351678;28;20212;-78
2023/04/09 08:01:28;;;;;;;10.70;9.80;;;10.80;93.90;;;;;;10351538;28;20567;-80
2023/04/09 08:06:32;;;;;;;10.70;9.80;;;11.00;94.60;;;;;;10366090;28;20228;-79
2023/04/09 08:11:34;;;;;;;11.60;10.70;;;11.40;95.20;;;;;;10351318;28;20203;-80
2023/04/09 08:16:36;;;;;;;11.27;10.27;;;11.80;95.70;;;;;;10367475;28;20215;-80
2023/04/09 08:21:41;;;;;;;11.30;10.33;;;12.20;94.60;;;;;;10355670;28;20246;-80
2023/04/09 08:26:44;;;;;;;9.27;8.50;;;12.50;92.70;;;;;;10377130;28;20219;-82
2023/04/09 08:31:46;;;;;;;9.20;8.50;;;12.70;93.10;;;;;;10368267;28;20600;-80
2023/04/09 08:36:49;;;;;;;10.17;9.37;;;12.90;90.40;;;;;;10348297;28;20240;-80
2023/04/09 08:41:52;;;;;;;9.87;9.07;;;13.00;88.60;;;;;;10374157;28;20716;-82
2023/04/09 08:46:54;;;;;;;10.83;9.90;;;13.00;88.30;;;;;;10357019;28;20663;-82
2023/04/09 08:51:58;;;;;;;12.77;11.63;;;13.20;88.20;;;;;;10348761;28;20210;-81
2023/04/09 08:57:00;;;;;;;11.43;10.43;;;13.20;86.50;;;;;;10369307;28;20219;-82
2023/04/09 09:02:09;;;;;;;10.67;9.77;;;13.30;88.60;;;;;;10365408;28;20235;-82
2023/04/09 09:07:12;;;;;;;11.40;10.40;;;13.40;85.40;;;;;;10345632;28;20307;-83
2023/04/09 09:12:33;;;;;;;17.10;12.47;;;13.60;88.10;;;;;;10369462;28;20203;-80
2023/04/09 09:17:54;;;;;;;11.10;10.20;;;13.60;84.80;;;;;;10369991;28;20632;-81
2023/04/09 09:22:58;;;;;;;11.40;10.50;;;13.80;85.00;;;;;;10338906;28;20254;-81
2023/04/09 09:28:08;;;;;;;11.87;10.87;;;13.80;83.40;;;;;;10360828;28;20270;-79
2023/04/09 09:33:11;;;;;;;12.73;11.63;;;14.00;81.90;;;;;;10349263;28;20681;-81
2023/04/09 09:38:15;;;;;;;11.57;10.67;;;14.00;82.50;;;;;;10372430;28;20423;-82
2023/04/09 09:43:18;;;;;;;10.53;9.63;;;14.10;82.50;;;;;;10363654;28;20204;-82
2023/04/09 09:48:20;;;;;;;9.73;9.03;;;14.40;81.70;;;;;;10357788;28;20219;-82
2023/04/09 09:53:26;;;;;;;13.13;12.00;;;14.60;81.00;;;;;;10372721;28;20242;-82
2023/04/09 09:58:32;;;;;;;11.40;10.40;;;14.80;79.30;;;;;;10360937;28;20230;-82
2023/04/09 10:03:36;;;;;;;11.13;10.17;;;14.70;79.90;;;;;;10395688;28;20202;-82
2023/04/09 10:08:41;;;;;;;9.47;8.77;;;14.70;77.20;;;;;;10371197;28;20228;-82
2023/04/09 10:13:49;;;;;;;8.63;8.03;;;14.60;76.10;;;;;;10357689;28;20230;-82
2023/04/09 10:18:52;;;;;;;8.30;7.80;;;14.40;75.70;;;;;;10382011;28;20219;-82
2023/04/09 10:23:56;;;;;;;8.53;7.93;;;14.20;73.90;;;;;;10392719;28;20655;-82
2023/04/09 10:29:08;;;;;;;6.97;6.50;;;13.80;74.30;;;;;;10381156;28;20219;-81
2023/04/09 10:34:10;;;;;;;6.13;5.73;;;13.60;76.30;;;;;;10336170;28;20286;-81
2023/04/09 10:39:14;;;;;;;7.33;6.83;;;13.40;72.90;;;;;;10364502;28;20220;-80
2023/04/09 10:44:30;;;;;;;8.57;7.97;;;13.30;73.70;;;;;;10352658;28;20285;-80
2023/04/09 10:49:37;;;;;;;8.10;7.50;;;13.30;74.00;;;;;;10352254;28;20698;-81
2023/04/09 10:54:45;;;;;;;7.93;7.33;;;13.30;72.80;;;;;;10365760;28;20257;-80
2023/04/09 10:59:49;;;;;;;7.03;6.53;;;13.30;73.20;;;;;;10363743;28;20200;-80
2023/04/09 11:05:02;;;;;;;6.90;6.40;;;13.50;71.00;;;;;;10344636;28;20246;-80
2023/04/09 11:10:07;;;;;;;7.20;6.70;;;13.60;71.30;;;;;;10338789;28;20274;-82
2023/04/09 11:15:16;;;;;;;6.30;5.90;;;13.70;72.40;;;;;;10347863;28;20223;-80
2023/04/09 11:20:21;;;;;;;7.50;7.00;;;13.70;69.90;;;;;;10339139;28;20196;-81
2023/04/09 11:25:26;;;;;;;7.70;7.20;;;13.60;71.80;;;;;;10353563;28;20277;-81
2023/04/09 11:30:29;;;;;;;7.20;6.70;;;13.60;73.50;;;;;;10360660;28;20208;-81
2023/04/09 11:35:35;;;;;;;7.63;7.03;;;13.50;75.30;;;;;;10344419;28;20220;-81
2023/04/09 11:40:46;;;;;;;8.20;7.50;;;13.40;76.70;;;;;;10360447;28;20191;-81
2023/04/09 11:45:49;;;;;;;8.50;7.80;;;13.50;71.40;;;;;;10366684;28;20215;-80
2023/04/09 11:50:51;;;;;;;8.47;7.87;;;13.40;71.80;;;;;;10369326;28;20247;-81
2023/04/09 11:55:55;;;;;;;7.70;7.10;;;13.30;69.90;;;;;;10354246;28;20223;-80
2023/04/09 12:00:59;;;;;;;7.10;6.60;;;13.10;72.80;;;;;;10375364;28;20253;-80
2023/04/09 12:06:02;;;;;;;8.70;8.00;;;13.20;69.40;;;;;;10387030;28;20219;-80
2023/04/09 12:11:13;;;;;;;7.20;6.70;;;13.10;70.80;;;;;;10380377;28;20249;-80
2023/04/09 12:16:19;;;;;;;7.67;7.10;;;13.10;72.80;;;;;;10364280;28;20657;-80
2023/04/09 12:21:24;;;;;;;8.70;8.00;;;13.20;72.60;;;;;;10369285;28;20229;-80
2023/04/09 12:26:28;;;;;;;7.90;7.30;;;13.30;70.70;;;;;;10358433;28;20234;-81
2023/04/09 12:31:30;;;;;;;7.73;7.20;;;13.40;69.80;;;;;;10343534;28;20192;-80
2023/04/09 12:36:32;;;;;;;7.50;6.90;;;13.50;69.20;;;;;;10347368;28;20692;-80
2023/04/09 12:41:35;;;;;;;9.33;7.30;;;13.50;70.00;;;;;;10352392;28;20191;-79
2023/04/09 12:46:37;;;;;;;7.13;6.63;;;13.60;69.80;;;;;;10386281;28;20219;-80
2023/04/09 12:51:40;;;;;;;7.07;6.57;;;13.80;68.70;;;;;;10359400;28;20199;-80
2023/04/09 12:56:43;;;;;;;6.60;6.10;;;13.90;69.20;;;;;;10362237;28;20307;-80
2023/04/09 13:01:45;;;;;;;6.97;6.50;;;13.90;71.70;;;;;;10361748;28;20242;-80
2023/04/09 13:06:49;;;;;;;6.80;6.30;;;14.00;68.70;;;;;;10350702;28;20257;-80
2023/04/09 13:11:52;;;;;;;6.33;5.93;;;13.90;71.50;;;;;;10365405;28;20206;-79
2023/04/09 13:16:54;;;;;;;7.27;6.77;;;14.00;67.00;;;;;;10375750;28;20257;-80
2023/04/09 13:21:56;;;;;;;6.07;5.67;;;13.90;68.80;;;;;;10372206;28;20222;-80
2023/04/09 13:27:00;;;;;;;6.27;5.87;;;14.00;65.90;;;;;;10375109;28;20601;-80
2023/04/09 13:32:05;;;;;;;6.57;6.17;;;14.00;66.10;;;;;;10353207;28;20196;-80
2023/04/09 13:37:08;;;;;;;6.77;6.30;;;14.10;66.80;;;;;;10365212;28;20215;-80
2023/04/09 13:42:11;;;;;;;7.53;6.90;;;14.20;66.00;;;;;;10385462;28;20191;-80
2023/04/09 13:47:14;;;;;;;7.17;6.67;;;14.20;64.80;;;;;;10369822;28;20293;-80
2023/04/09 13:52:17;;;;;;;6.97;6.47;;;14.20;64.20;;;;;;10383314;28;20211;-80
2023/04/09 13:57:20;;;;;;;6.00;5.60;;;14.20;65.10;;;;;;10356976;28;20215;-80
2023/04/09 14:02:22;;;;;;;6.23;5.83;;;14.20;67.10;;;;;;10355040;28;20291;-80
2023/04/09 14:07:24;;;;;;;7.20;6.60;;;14.30;64.90;;;;;;10362403;28;20231;-80
2023/04/09 14:12:28;;;;;;;6.17;5.77;;;14.40;63.30;;;;;;10365937;28;20199;-80
2023/04/09 14:17:30;;;;;;;6.40;5.90;;;14.50;63.40;;;;;;10389193;28;20207;-81
2023/04/09 14:22:32;;;;;;;9.40;8.47;;;14.50;63.90;;;;;;10382836;28;20231;-80
2023/04/09 14:27:36;;;;;;;9.83;6.83;;;14.80;62.80;;;;;;10360211;28;20718;-79
2023/04/09 14:32:38;;;;;;;5.97;5.57;;;14.80;62.70;;;;;;10376944;28;20563;-80
2023/04/09 14:37:40;;;;;;;7.17;6.60;;;14.90;65.90;;;;;;10345152;28;20219;-81
2023/04/09 14:42:45;;;;;;;6.77;6.27;;;15.10;63.70;;;;;;10352192;28;20286;-80
2023/04/09 14:47:47;;;;;;;6.90;6.30;;;15.30;61.70;;;;;;10375267;28;20295;-80
2023/04/09 14:52:50;;;;;;;7.70;7.10;;;15.30;64.90;;;;;;10352226;28;20214;-80
2023/04/09 14:57:53;;;;;;;7.53;7.00;;;15.40;62.90;;;;;;10346043;28;20219;-80
2023/04/09 15:02:55;;;;;;;7.47;6.90;;;15.50;62.70;;;;;;10376494;28;20200;-80
2023/04/09 15:07:58;;;;;;;8.20;7.60;;;15.50;62.60;;;;;;10353088;28;20290;-83
2023/04/09 15:13:01;;;;;;;7.80;7.20;;;15.60;62.60;;;;;;10379453;28;20271;-82
2023/04/09 15:18:04;;;;;;;7.63;7.03;;;15.60;61.70;;;;;;10382450;28;20294;-82
2023/04/09 15:23:06;;;;;;;7.70;7.10;;;15.60;62.40;;;;;;10397508;28;20222;-81
2023/04/09 15:28:10;;;;;;;7.40;6.90;;;15.50;62.80;;;;;;10387444;28;20219;-81
2023/04/09 15:33:12;;;;;;;7.13;6.63;;;15.20;63.90;;;;;;10356784;28;20200;-82
2023/04/09 15:38:16;;;;;;;7.50;6.90;;;15.10;61.90;;;;;;10380588;28;20246;-82
2023/04/09 15:43:19;;;;;;;6.57;6.17;;;15.10;62.60;;;;;;10354552;28;20196;-82
2023/04/09 15:48:21;;;;;;;8.20;7.40;;;15.10;61.90;;;;;;10353018;28;20227;-81
2023/04/09 15:53:26;;;;;;;8.07;7.47;;;14.90;61.90;;;;;;10378613;28;20211;-81
2023/04/09 15:58:30;;;;;;;8.30;7.60;;;14.80;62.20;;;;;;10333813;28;20215;-81
2023/04/09 16:03:35;;;;;;;7.20;6.60;;;14.80;62.40;;;;;;10364728;28;20285;-82
2023/04/09 16:08:38;;;;;;;7.90;7.20;;;14.70;62.50;;;;;;10380671;28;20227;-81
2023/04/09 16:13:42;;;;;;;7.60;7.07;;;14.60;62.10;;;;;;10349429;28;20196;-82
2023/04/09 16:18:44;;;;;;;8.23;7.53;;;14.60;62.60;;;;;;10360519;28;20211;-81
2023/04/09 16:23:46;;;;;;;8.37;7.67;;;14.60;63.20;;;;;;10364928;28;20267;-81
2023/04/09 16:28:50;;;;;;;8.10;7.50;;;14.70;62.30;;;;;;10350474;28;20217;-81
2023/04/09 16:33:52;;;;;;;8.80;8.00;;;14.50;63.30;;;;;;10384678;28;20224;-82
2023/04/09 16:38:54;;;;;;;8.07;7.47;;;14.50;62.80;;;;;;10361310;28;20215;-82
2023/04/09 16:43:57;;;;;;;7.77;7.17;;;14.50;62.60;;;;;;10372510;28;20203;-80
2023/04/09 16:48:59;;;;;;;7.27;6.77;;;14.30;64.30;;;;;;10420886;28;20211;-79
2023/04/09 16:54:01;;;;;;;8.67;6.60;;;14.40;62.10;;;;;;10360706;28;20283;-78
2023/04/09 16:59:05;;;;;;;7.80;7.20;;;14.40;61.60;;;;;;10354496;28;20220;-80
2023/04/09 17:04:07;;;;;;;7.43;6.87;;;14.30;62.30;;;;;;10378923;28;20567;-80
2023/04/09 17:09:09;;;;;;;6.80;6.20;;;14.40;60.40;;;;;;10341189;28;20212;-80
2023/04/09 17:14:13;;;;;;;6.57;6.07;;;14.20;62.10;;;;;;10382384;28;20197;-81
2023/04/09 17:19:15;;;;;;;6.77;6.27;;;14.10;63.50;;;;;;10370276;28;20220;-82
2023/04/09 17:24:17;;;;;;;7.30;6.73;;;14.00;67.80;;;;;;10363733;28;20257;-82
2023/04/09 17:29:20;;;;;;;6.40;5.90;;;14.00;66.70;;;;;;10342052;28;20236;-82
2023/04/09 17:34:23;;;;;;;6.53;6.03;;;13.90;66.50;;;;;;10351684;28;20211;-82
2023/04/09 17:39:25;;;;;;;6.83;6.30;;;13.90;63.50;;;;;;10382850;28;20215;-84
2023/04/09 17:44:30;;;;;;;7.43;6.83;;;13.80;66.50;;;;;;10343598;28;20279;-82
2023/04/09 17:49:32;;;;;;;7.63;7.03;;;13.90;63.70;;;;;;10364106;28;20226;-81
2023/04/09 17:54:37;;;;;;;7.83;7.23;;;13.70;66.60;;;;;;10379493;28;20196;-81
2023/04/09 17:59:40;;;;;;;8.30;7.30;;;13.70;65.70;;;;;;10338750;28;20224;-81
2023/04/09 18:04:43;;;;;;;11.47;10.10;;;13.60;70.10;;;;;;10378372;28;20215;-80
2023/04/09 18:09:45;;;;;;;10.50;9.40;;;13.50;68.20;;;;;;10357944;28;20215;-80
2023/04/09 18:14:49;;;;;;;9.70;8.80;;;13.40;67.00;;;;;;10346669;28;20206;-84
2023/04/09 18:19:53;;;;;;;9.03;8.20;;;13.40;67.70;;;;;;10343206;28;20316;-83
2023/04/09 18:24:55;;;;;;;7.90;7.30;;;13.30;66.80;;;;;;10372478;28;20234;-81
2023/04/09 18:29:59;;;;;;;8.03;7.37;;;13.20;69.00;;;;;;10382330;28;20223;-83
2023/04/09 18:35:01;;;;;;;7.53;7.00;;;13.10;67.70;;;;;;10345580;28;20226;-83
2023/04/09 18:40:03;;;;;;;8.60;7.90;;;13.10;67.50;;;;;;10356111;28;20650;-83
2023/04/09 18:45:08;;;;;;;7.40;6.80;;;13.00;68.30;;;;;;10380496;28;20243;-83
2023/04/09 18:50:11;;;;;;;7.30;6.60;;;12.90;69.50;;;;;;10344889;28;20216;-83
2023/04/09 18:55:13;;;;;;;8.63;7.93;;;12.80;70.50;;;;;;10342931;28;20240;-82
2023/04/09 19:00:17;;;;;;;8.03;7.43;;;12.70;71.40;;;;;;10408169;28;20210;-82
2023/04/09 19:05:19;;;;;;;8.63;7.93;;;12.60;71.80;;;;;;10393626;28;20227;-82
2023/04/09 19:10:21;;;;;;;8.93;8.23;;;12.40;72.30;;;;;;10391244;28;20283;-84
2023/04/09 19:15:27;;;;;;;8.60;7.90;;;12.30;73.10;;;;;;10382698;28;20215;-82
2023/04/09 19:20:30;;;;;;;9.10;8.40;;;12.10;73.70;;;;;;10376765;28;20205;-83
2023/04/09 19:25:33;;;;;;;7.90;7.30;;;12.00;74.60;;;;;;10350631;28;20647;-82
2023/04/09 19:30:37;;;;;;;9.07;8.37;;;11.80;74.70;;;;;;10378323;28;20306;-80
2023/04/09 19:35:40;;;;;;;8.13;7.43;;;11.70;74.50;;;;;;10364696;28;20242;-81
2023/04/09 19:40:42;;;;;;;8.93;8.07;;;11.60;74.90;;;;;;10346647;28;20195;-81
2023/04/09 19:45:45;;;;;;;8.00;7.40;;;11.50;75.50;;;;;;10371095;28;20223;-79
2023/04/09 19:50:47;;;;;;;9.40;8.60;;;11.40;76.20;;;;;;10344502;28;20246;-80
2023/04/09 19:55:50;;;;;;;9.13;8.43;;;11.30;76.10;;;;;;10365987;28;20269;-80
2023/04/09 20:00:57;;;;;;;8.73;8.03;;;11.20;76.00;;;;;;10374443;28;20710;-83
2023/04/09 20:05:59;;;;;;;10.60;8.37;;;11.10;76.70;;;;;;10345861;28;20255;-82
2023/04/09 20:11:01;;;;;;;9.10;8.40;;;11.00;76.80;;;;;;10343139;28;20273;-81
2023/04/09 20:16:06;;;;;;;9.40;8.70;;;10.90;77.30;;;;;;10347421;28;20215;-81
2023/04/09 20:21:12;;;;;;;8.33;7.73;;;10.80;77.70;;;;;;10345678;28;20652;-81
2023/04/09 20:26:15;;;;;;;9.03;8.23;;;10.70;77.70;;;;;;10377951;28;20223;-80
2023/04/09 20:31:18;;;;;;;11.00;9.90;;;10.70;78.40;;;;;;10354620;28;20225;-80
2023/04/09 20:36:21;;;;;;;10.30;9.30;;;10.60;78.90;;;;;;10355103;28;20219;-80
2023/04/09 20:41:23;;;;;;;9.73;8.93;;;10.50;78.50;;;;;;10357264;28;20225;-80
2023/04/09 20:46:26;;;;;;;9.93;9.10;;;10.50;79.40;;;;;;10333002;28;20254;-79
2023/04/09 20:51:29;;;;;;;11.00;9.93;;;10.40;79.50;;;;;;10374011;28;20572;-81
2023/04/09 20:56:31;;;;;;;10.00;9.20;;;10.30;79.70;;;;;;10374392;28;20695;-81
2023/04/09 21:01:35;;;;;;;10.43;9.53;;;10.30;79.90;;;;;;10352331;28;20287;-81
2023/04/09 21:06:39;;;;;;;10.10;9.20;;;10.20;80.80;;;;;;10398145;22;20602;-82
2023/04/09 21:11:41;;;;;;;11.67;10.50;;;10.10;81.10;;;;;;10371209;28;20227;-82
2023/04/09 21:16:44;;;;;;;10.93;10.03;;;10.10;80.90;;;;;;10380706;28;20277;-81
2023/04/09 21:21:46;;;;;;;9.90;9.03;;;10.00;81.10;;;;;;10381021;28;20261;-82
2023/04/09 21:26:48;;;;;;;11.87;10.77;;;10.00;81.40;;;;;;10378098;28;20721;-81
2023/04/09 21:31:52;;;;;;;11.50;10.60;;;9.90;82.90;;;;;;10378381;28;20289;-82
2023/04/09 21:36:54;;;;;;;11.63;10.07;;;9.90;83.10;;;;;;10379129;28;20287;-81
2023/04/09 21:41:57;;;;;;;11.27;10.30;;;9.80;83.60;;;;;;10381906;28;20730;-83
2023/04/09 21:47:00;;;;;;;10.33;9.43;;;9.70;83.80;;;;;;10386357;28;20220;-82
2023/04/09 21:52:02;;;;;;;11.70;10.70;;;9.60;84.00;;;;;;10394576;28;20255;-81
2023/04/09 21:57:05;;;;;;;10.60;9.70;;;9.50;84.30;;;;;;10363481;28;20281;-80
2023/04/09 22:02:08;;;;;;;11.00;10.10;;;9.50;84.40;;;;;;10390541;28;20574;-81
2023/04/09 22:07:11;;;;;;;11.73;10.73;;;9.50;84.80;;;;;;10396554;28;20483;-80
2023/04/09 22:12:13;;;;;;;11.13;10.13;;;9.30;85.00;;;;;;10382927;28;20304;-82
2023/04/09 22:17:16;;;;;;;11.23;10.13;;;9.30;85.20;;;;;;10379435;28;20224;-82
2023/04/09 22:22:18;;;;;;;11.03;10.10;;;9.20;85.70;;;;;;10381673;28;20199;-81
2023/04/09 22:27:21;;;;;;;11.23;10.13;;;9.20;86.00;;;;;;10379190;28;20223;-81
2023/04/09 22:32:24;;;;;;;12.20;11.10;;;9.20;86.10;;;;;;10377911;28;20302;-81
2023/04/09 22:37:26;;;;;;;11.13;9.77;;;9.20;86.30;;;;;;10380265;28;20223;-80
2023/04/09 22:42:28;;;;;;;10.83;9.83;;;9.10;86.30;;;;;;10380261;28;20198;-80
2023/04/09 22:47:32;;;;;;;12.07;10.97;;;9.10;86.60;;;;;;10377678;28;20227;-81
2023/04/09 22:52:34;;;;;;;12.30;11.10;;;9.00;86.60;;;;;;10376644;28;20562;-81
2023/04/09 22:57:37;;;;;;;12.33;11.23;;;8.90;86.80;;;;;;10377683;28;20222;-81
2023/04/09 23:02:40;;;;;;;12.80;11.60;;;8.80;87.10;;;;;;10379118;28;20194;-80
2023/04/09 23:07:43;;;;;;;12.27;11.17;;;8.80;87.20;;;;;;10379221;28;20257;-81
2023/04/09 23:12:45;;;;;;;12.17;11.07;;;8.70;87.60;;;;;;10363504;28;20261;-80
2023/04/09 23:17:50;;;;;;;12.70;11.60;;;8.80;87.80;;;;;;10363027;28;20701;-81
2023/04/09 23:22:52;;;;;;;12.90;11.70;;;8.80;88.10;;;;;;10380783;28;20697;-80
2023/04/09 23:27:54;;;;;;;12.97;11.77;;;8.80;87.90;;;;;;10381810;28;20219;-80
2023/04/09 23:32:58;;;;;;;12.70;11.60;;;8.80;88.20;;;;;;10393748;28;21168;-80
2023/04/09 23:38:00;;;;;;;12.50;11.30;;;8.80;87.90;;;;;;10378734;28;20249;-82
2023/04/09 23:43:02;;;;;;;13.20;11.90;;;8.80;88.00;;;;;;10381394;28;20228;-82
2023/04/09 23:48:07;;;;;;;12.70;11.60;;;8.70;88.40;;;;;;10381102;28;20221;-82
2023/04/09 23:53:09;;;;;;;13.30;12.20;;;8.60;89.00;;;;;;10379786;28;20242;-80
2023/04/09 23:58:11;;;;;;;13.53;12.23;;;8.60;88.80;;;;;;10376383;28;20225;-80
